createdAt,value
2019-02-04T00:00:15.027Z,1005.4
2019-02-04T00:01:16.351Z,1005.4
2019-02-04T00:02:17.714Z,1005.4
2019-02-04T00:03:19.087Z,1005.4
2019-02-04T00:04:20.461Z,1005.4
2019-02-04T00:05:21.853Z,1005.4
2019-02-04T00:06:23.191Z,1005.4
2019-02-04T00:07:24.555Z,1005.4
2019-02-04T00:08:25.966Z,1005.4
2019-02-04T00:09:27.340Z,1005.4
2019-02-04T00:10:28.710Z,1005.4
2019-02-04T00:11:30.171Z,1005.5
2019-02-04T00:12:31.573Z,1005.4
2019-02-04T00:13:32.929Z,1005.4
2019-02-04T00:14:34.336Z,1005.4
2019-02-04T00:15:35.717Z,1005.4
2019-02-04T00:16:40.933Z,1005.4
2019-02-04T00:17:38.426Z,1005.4
2019-02-04T00:18:39.812Z,1005.5
2019-02-04T00:19:41.175Z,1005.4
2019-02-04T00:20:42.540Z,1005.5
2019-02-04T00:21:43.904Z,1005.5
2019-02-04T00:22:45.258Z,1005.5
2019-02-04T00:23:46.636Z,1005.5
2019-02-04T00:24:48.002Z,1005.5
2019-02-04T00:25:49.390Z,1005.5
2019-02-04T00:26:51.909Z,1005.5
2019-02-04T00:27:52.662Z,1005.5
2019-02-04T00:28:54.186Z,1005.5
2019-02-04T00:29:55.563Z,1005.5
2019-02-04T00:30:56.943Z,1005.5
2019-02-04T00:31:58.339Z,1005.5
2019-02-04T00:32:59.733Z,1005.5
2019-02-04T00:34:01.108Z,1005.5
2019-02-04T00:35:02.472Z,1005.5
2019-02-04T00:36:03.909Z,1005.5
2019-02-04T00:37:05.213Z,1005.5
2019-02-04T00:38:06.615Z,1005.5
2019-02-04T00:39:07.953Z,1005.5
2019-02-04T00:40:09.291Z,1005.4
2019-02-04T00:41:10.658Z,1005.5
2019-02-04T00:42:12.033Z,1005.5
2019-02-04T00:43:13.410Z,1005.5
2019-02-04T00:44:14.781Z,1005.5
2019-02-04T00:45:16.146Z,1005.6
2019-02-04T00:46:17.549Z,1005.5
2019-02-04T00:47:18.917Z,1005.6
2019-02-04T00:48:20.290Z,1005.6
2019-02-04T00:49:21.625Z,1005.6
2019-02-04T00:50:22.993Z,1005.5
2019-02-04T00:51:24.363Z,1005.6
2019-02-04T00:52:25.729Z,1005.5
2019-02-04T00:53:27.207Z,1005.5
2019-02-04T00:54:28.452Z,1005.5
2019-02-04T00:55:29.779Z,1005.5
2019-02-04T00:56:31.184Z,1005.5
2019-02-04T00:57:32.584Z,1005.5
2019-02-04T00:58:33.875Z,1005.6
2019-02-04T00:59:35.225Z,1005.6
2019-02-04T01:00:37.252Z,1005.6
2019-02-04T01:01:38.629Z,1005.6
2019-02-04T01:02:39.999Z,1005.6
2019-02-04T01:03:41.370Z,1005.7
2019-02-04T01:04:42.742Z,1005.7
2019-02-04T01:05:44.103Z,1005.7
2019-02-04T01:06:45.485Z,1005.7
2019-02-04T01:07:46.856Z,1005.7
2019-02-04T01:08:48.350Z,1005.8
2019-02-04T01:09:49.540Z,1005.7
2019-02-04T01:10:50.902Z,1005.8
2019-02-04T01:11:52.294Z,1005.8
2019-02-04T01:12:53.692Z,1005.8
2019-02-04T01:13:55.074Z,1005.8
2019-02-04T01:14:56.447Z,1005.8
2019-02-04T01:15:57.852Z,1005.9
2019-02-04T01:17:03.413Z,1005.9
2019-02-04T01:18:00.575Z,1005.9
2019-02-04T01:19:01.970Z,1005.9
2019-02-04T01:20:03.408Z,1005.9
2019-02-04T01:21:04.778Z,1005.9
2019-02-04T01:22:06.146Z,1005.9
2019-02-04T01:23:07.532Z,1006.0
2019-02-04T01:24:08.882Z,1006.0
2019-02-04T01:25:10.247Z,1006.0
2019-02-04T01:26:11.612Z,1006.0
2019-02-04T01:27:12.999Z,1006.0
2019-02-04T01:28:14.406Z,1006.0
2019-02-04T01:29:15.792Z,1006.0
2019-02-04T01:30:17.158Z,1006.0
2019-02-04T01:31:18.524Z,1006.0
2019-02-04T01:32:19.965Z,1006.0
2019-02-04T01:33:21.353Z,1006.0
2019-02-04T01:34:22.724Z,1006.0
2019-02-04T01:35:24.096Z,1006.0
2019-02-04T01:36:25.462Z,1006.0
2019-02-04T01:37:26.803Z,1006.0
2019-02-04T01:38:28.172Z,1006.0
2019-02-04T01:39:29.535Z,1006.0
2019-02-04T01:40:30.905Z,1006.0
2019-02-04T01:41:33.348Z,1006.0
2019-02-04T01:42:33.608Z,1006.0
2019-02-04T01:43:34.978Z,1006.0
2019-02-04T01:44:36.345Z,1006.0
2019-02-04T01:45:37.716Z,1006.0
2019-02-04T01:46:39.053Z,1006.0
2019-02-04T01:47:40.419Z,1006.0
2019-02-04T01:48:41.784Z,1006.0
2019-02-04T01:49:44.765Z,1006.1
2019-02-04T01:50:46.925Z,1006.1
2019-02-04T01:51:48.296Z,1006.1
2019-02-04T01:52:49.655Z,1006.1
2019-02-04T01:53:51.044Z,1006.1
2019-02-04T01:54:52.427Z,1006.1
2019-02-04T01:55:53.827Z,1006.2
2019-02-04T01:56:55.181Z,1006.2
2019-02-04T01:57:56.537Z,1006.1
2019-02-04T01:58:57.912Z,1006.2
2019-02-04T01:59:59.312Z,1006.2
2019-02-04T02:01:00.676Z,1006.2
2019-02-04T02:02:02.099Z,1006.2
2019-02-04T02:03:03.457Z,1006.2
2019-02-04T02:04:04.835Z,1006.2
2019-02-04T02:05:06.209Z,1006.2
2019-02-04T02:06:07.555Z,1006.1
2019-02-04T02:07:08.922Z,1006.1
2019-02-04T02:08:10.296Z,1006.2
2019-02-04T02:09:11.678Z,1006.2
2019-02-04T02:10:13.073Z,1006.2
2019-02-04T02:11:14.437Z,1006.2
2019-02-04T02:12:15.799Z,1006.2
2019-02-04T02:13:17.170Z,1006.1
2019-02-04T02:14:18.534Z,1006.2
2019-02-04T02:15:19.897Z,1006.2
2019-02-04T02:16:21.235Z,1006.2
2019-02-04T02:17:26.500Z,1006.2
2019-02-04T02:18:23.967Z,1006.2
2019-02-04T02:19:25.432Z,1006.2
2019-02-04T02:20:26.839Z,1006.2
2019-02-04T02:21:28.195Z,1006.2
2019-02-04T02:22:29.579Z,1006.2
2019-02-04T02:23:30.955Z,1006.3
2019-02-04T02:24:32.304Z,1006.3
2019-02-04T02:25:33.674Z,1006.3
2019-02-04T02:26:35.042Z,1006.3
2019-02-04T02:27:36.425Z,1006.3
2019-02-04T02:28:37.803Z,1006.3
2019-02-04T02:29:39.289Z,1006.4
2019-02-04T02:30:40.509Z,1006.4
2019-02-04T02:31:41.875Z,1006.3
2019-02-04T02:32:43.239Z,1006.3
2019-02-04T02:33:44.608Z,1006.3
2019-02-04T02:34:45.983Z,1006.3
2019-02-04T02:35:47.368Z,1006.3
2019-02-04T02:36:48.844Z,1006.3
2019-02-04T02:37:50.058Z,1006.3
2019-02-04T02:38:51.439Z,1006.3
2019-02-04T02:39:53.733Z,1006.3
2019-02-04T02:40:55.108Z,1006.3
2019-02-04T02:41:56.505Z,1006.3
2019-02-04T02:42:57.878Z,1006.3
2019-02-04T02:43:59.246Z,1006.3
2019-02-04T02:45:00.578Z,1006.3
2019-02-04T02:46:01.952Z,1006.3
2019-02-04T02:47:03.322Z,1006.2
2019-02-04T02:48:04.685Z,1006.3
2019-02-04T02:49:06.113Z,1006.3
2019-02-04T02:50:07.511Z,1006.3
2019-02-04T02:51:08.872Z,1006.3
2019-02-04T02:52:10.242Z,1006.3
2019-02-04T02:53:11.614Z,1006.3
2019-02-04T02:54:12.942Z,1006.3
2019-02-04T02:55:14.307Z,1006.3
2019-02-04T02:56:15.676Z,1006.4
2019-02-04T02:57:17.058Z,1006.4
2019-02-04T02:58:18.408Z,1006.4
2019-02-04T02:59:19.781Z,1006.4
2019-02-04T03:00:21.160Z,1006.4
2019-02-04T03:01:22.525Z,1006.5
2019-02-04T03:02:23.889Z,1006.5
2019-02-04T03:03:25.258Z,1006.5
2019-02-04T03:04:26.622Z,1006.6
2019-02-04T03:05:27.980Z,1006.6
2019-02-04T03:06:29.384Z,1006.6
2019-02-04T03:07:30.745Z,1006.6
2019-02-04T03:08:32.117Z,1006.6
2019-02-04T03:09:33.501Z,1006.5
2019-02-04T03:10:34.862Z,1006.6
2019-02-04T03:11:36.238Z,1006.5
2019-02-04T03:12:37.601Z,1006.5
2019-02-04T03:13:38.968Z,1006.5
2019-02-04T03:14:40.305Z,1006.5
2019-02-04T03:15:41.679Z,1006.5
2019-02-04T03:16:43.081Z,1006.5
2019-02-04T03:17:52.236Z,1006.5
2019-02-04T03:18:45.805Z,1006.6
2019-02-04T03:19:47.174Z,1006.6
2019-02-04T03:20:48.534Z,1006.7
2019-02-04T03:21:49.900Z,1006.7
2019-02-04T03:22:51.287Z,1006.7
2019-02-04T03:23:52.663Z,1006.7
2019-02-04T03:24:54.035Z,1006.7
2019-02-04T03:25:55.400Z,1006.7
2019-02-04T03:26:56.775Z,1006.7
2019-02-04T03:27:58.166Z,1006.7
2019-02-04T03:28:59.587Z,1006.6
2019-02-04T03:30:00.944Z,1006.7
2019-02-04T03:31:02.295Z,1006.7
2019-02-04T03:32:03.658Z,1006.7
2019-02-04T03:33:04.985Z,1006.8
2019-02-04T03:34:06.351Z,1006.7
2019-02-04T03:35:07.722Z,1006.8
2019-02-04T03:36:09.251Z,1006.7
2019-02-04T03:37:10.601Z,1006.7
2019-02-04T03:38:11.977Z,1006.7
2019-02-04T03:39:13.372Z,1006.7
2019-02-04T03:40:14.752Z,1006.7
2019-02-04T03:41:16.107Z,1006.7
2019-02-04T03:42:17.446Z,1006.8
2019-02-04T03:43:18.827Z,1006.7
2019-02-04T03:44:20.196Z,1006.8
2019-02-04T03:45:21.591Z,1006.8
2019-02-04T03:46:22.966Z,1006.8
2019-02-04T03:47:24.355Z,1006.8
2019-02-04T03:48:25.716Z,1006.8
2019-02-04T03:49:27.884Z,1006.8
2019-02-04T03:50:29.224Z,1006.9
2019-02-04T03:51:30.589Z,1006.8
2019-02-04T03:52:31.923Z,1006.8
2019-02-04T03:53:33.312Z,1006.8
2019-02-04T03:54:34.669Z,1006.8
2019-02-04T03:55:36.037Z,1006.8
2019-02-04T03:56:37.419Z,1006.8
2019-02-04T03:57:38.777Z,1006.8
2019-02-04T03:58:40.145Z,1006.8
2019-02-04T03:59:41.510Z,1006.8
2019-02-04T04:00:42.883Z,1006.8
2019-02-04T04:01:44.226Z,1006.8
2019-02-04T04:02:45.595Z,1006.8
2019-02-04T04:03:46.963Z,1006.8
2019-02-04T04:04:48.349Z,1006.9
2019-02-04T04:05:49.714Z,1006.8
2019-02-04T04:06:51.085Z,1006.8
2019-02-04T04:07:53.534Z,1006.8
2019-02-04T04:08:53.821Z,1006.8
2019-02-04T04:09:55.157Z,1006.8
2019-02-04T04:10:56.532Z,1006.8
2019-02-04T04:11:57.859Z,1006.8
2019-02-04T04:12:59.225Z,1006.8
2019-02-04T04:14:00.587Z,1006.8
2019-02-04T04:15:01.971Z,1006.8
2019-02-04T04:16:03.336Z,1006.8
2019-02-04T04:17:04.703Z,1006.8
2019-02-04T04:18:15.604Z,1006.9
2019-02-04T04:19:07.481Z,1006.9
2019-02-04T04:20:08.752Z,1006.9
2019-02-04T04:21:10.142Z,1006.9
2019-02-04T04:22:11.509Z,1006.9
2019-02-04T04:23:12.930Z,1006.9
2019-02-04T04:24:14.307Z,1006.9
2019-02-04T04:25:15.671Z,1006.9
2019-02-04T04:26:17.042Z,1006.9
2019-02-04T04:27:18.420Z,1006.9
2019-02-04T04:28:19.815Z,1006.9
2019-02-04T04:29:21.160Z,1006.9
2019-02-04T04:30:22.498Z,1006.9
2019-02-04T04:31:23.928Z,1006.9
2019-02-04T04:32:25.228Z,1006.9
2019-02-04T04:33:26.660Z,1006.9
2019-02-04T04:34:28.023Z,1006.9
2019-02-04T04:35:29.390Z,1006.9
2019-02-04T04:36:30.780Z,1006.9
2019-02-04T04:37:32.154Z,1006.9
2019-02-04T04:38:33.528Z,1006.9
2019-02-04T04:39:34.890Z,1006.9
2019-02-04T04:40:36.258Z,1007.0
2019-02-04T04:41:37.672Z,1007.0
2019-02-04T04:42:39.027Z,1007.0
2019-02-04T04:43:40.395Z,1007.0
2019-02-04T04:44:41.788Z,1007.0
2019-02-04T04:45:43.156Z,1007.0
2019-02-04T04:46:44.630Z,1007.0
2019-02-04T04:47:45.882Z,1006.9
2019-02-04T04:48:47.245Z,1006.9
2019-02-04T04:49:48.572Z,1006.9
2019-02-04T04:50:49.940Z,1006.9
2019-02-04T04:51:51.311Z,1006.9
2019-02-04T04:52:52.681Z,1006.9
2019-02-04T04:53:54.056Z,1006.9
2019-02-04T04:54:55.428Z,1006.9
2019-02-04T04:55:56.797Z,1007.0
2019-02-04T04:56:58.177Z,1007.0
2019-02-04T04:57:59.548Z,1007.0
2019-02-04T04:59:00.886Z,1007.0
2019-02-04T05:00:02.268Z,1007.0
2019-02-04T05:01:04.581Z,1007.0
2019-02-04T05:02:05.995Z,1006.9
2019-02-04T05:03:07.344Z,1007.0
2019-02-04T05:04:08.797Z,1007.0
2019-02-04T05:05:10.163Z,1007.0
2019-02-04T05:06:11.534Z,1007.0
2019-02-04T05:07:12.900Z,1007.0
2019-02-04T05:08:14.288Z,1007.0
2019-02-04T05:09:15.607Z,1007.0
2019-02-04T05:10:17.073Z,1007.0
2019-02-04T05:11:18.451Z,1007.0
2019-02-04T05:12:19.807Z,1007.0
2019-02-04T05:13:21.178Z,1007.0
2019-02-04T05:14:22.540Z,1007.0
2019-02-04T05:15:23.968Z,1007.0
2019-02-04T05:16:25.373Z,1007.0
2019-02-04T05:17:26.761Z,1007.0
2019-02-04T05:18:37.804Z,1007.0
2019-02-04T05:19:29.426Z,1007.0
2019-02-04T05:20:30.793Z,1007.0
2019-02-04T05:21:32.166Z,1006.9
2019-02-04T05:22:33.537Z,1006.9
2019-02-04T05:23:34.902Z,1006.9
2019-02-04T05:24:36.263Z,1006.9
2019-02-04T05:25:37.631Z,1006.9
2019-02-04T05:26:39.018Z,1007.0
2019-02-04T05:27:40.383Z,1007.0
2019-02-04T05:28:41.758Z,1006.9
2019-02-04T05:29:43.132Z,1006.9
2019-02-04T05:30:44.501Z,1007.0
2019-02-04T05:31:45.895Z,1007.0
2019-02-04T05:32:47.263Z,1007.0
2019-02-04T05:33:49.316Z,1007.0
2019-02-04T05:34:50.682Z,1007.1
2019-02-04T05:35:52.043Z,1007.0
2019-02-04T05:36:53.421Z,1007.1
2019-02-04T05:37:54.777Z,1007.1
2019-02-04T05:38:56.150Z,1007.1
2019-02-04T05:39:57.592Z,1007.1
2019-02-04T05:40:58.994Z,1007.1
2019-02-04T05:42:00.385Z,1007.1
2019-02-04T05:43:01.748Z,1007.1
2019-02-04T05:44:03.152Z,1007.1
2019-02-04T05:45:04.523Z,1007.1
2019-02-04T05:46:05.966Z,1007.1
2019-02-04T05:47:07.300Z,1007.0
2019-02-04T05:48:08.655Z,1007.1
2019-02-04T05:49:10.029Z,1007.0
2019-02-04T05:50:11.389Z,1007.1
2019-02-04T05:51:12.749Z,1007.1
2019-02-04T05:52:14.119Z,1007.1
2019-02-04T05:53:15.497Z,1007.1
2019-02-04T05:54:16.872Z,1007.1
2019-02-04T05:55:18.245Z,1007.2
2019-02-04T05:56:19.612Z,1007.1
2019-02-04T05:57:21.062Z,1007.2
2019-02-04T05:58:22.281Z,1007.2
2019-02-04T05:59:23.663Z,1007.1
2019-02-04T06:00:25.152Z,1007.2
2019-02-04T06:01:26.368Z,1007.2
2019-02-04T06:02:27.740Z,1007.2
2019-02-04T06:03:29.108Z,1007.2
2019-02-04T06:04:30.536Z,1007.2
2019-02-04T06:05:31.902Z,1007.2
2019-02-04T06:06:33.245Z,1007.2
2019-02-04T06:07:34.615Z,1007.2
2019-02-04T06:08:35.990Z,1007.2
2019-02-04T06:09:37.355Z,1007.2
2019-02-04T06:10:38.728Z,1007.2
2019-02-04T06:11:40.099Z,1007.2
2019-02-04T06:12:41.454Z,1007.2
2019-02-04T06:13:42.823Z,1007.2
2019-02-04T06:14:44.192Z,1007.2
2019-02-04T06:15:45.533Z,1007.2
2019-02-04T06:16:46.902Z,1007.2
2019-02-04T06:17:48.289Z,1007.2
2019-02-04T06:19:00.062Z,1007.2
2019-02-04T06:19:50.991Z,1007.2
2019-02-04T06:20:52.346Z,1007.3
2019-02-04T06:21:53.774Z,1007.3
2019-02-04T06:22:55.147Z,1007.3
2019-02-04T06:23:56.518Z,1007.3
2019-02-04T06:24:57.892Z,1007.3
2019-02-04T06:25:59.232Z,1007.3
2019-02-04T06:27:00.615Z,1007.3
2019-02-04T06:28:02.013Z,1007.3
2019-02-04T06:29:03.345Z,1007.3
2019-02-04T06:30:04.716Z,1007.4
2019-02-04T06:31:06.110Z,1007.4
2019-02-04T06:32:07.471Z,1007.4
2019-02-04T06:33:08.841Z,1007.4
2019-02-04T06:34:10.198Z,1007.4
2019-02-04T06:35:11.527Z,1007.5
2019-02-04T06:36:12.894Z,1007.5
2019-02-04T06:37:14.262Z,1007.5
2019-02-04T06:38:15.656Z,1007.5
2019-02-04T06:39:16.997Z,1007.5
2019-02-04T06:40:18.372Z,1007.5
2019-02-04T06:41:19.750Z,1007.5
2019-02-04T06:42:21.112Z,1007.5
2019-02-04T06:43:22.484Z,1007.5
2019-02-04T06:44:23.819Z,1007.5
2019-02-04T06:45:25.210Z,1007.5
2019-02-04T06:46:26.582Z,1007.5
2019-02-04T06:47:27.980Z,1007.4
2019-02-04T06:48:29.402Z,1007.5
2019-02-04T06:49:30.786Z,1007.5
2019-02-04T06:50:32.160Z,1007.5
2019-02-04T06:51:33.528Z,1007.5
2019-02-04T06:52:34.895Z,1007.5
2019-02-04T06:53:36.293Z,1007.5
2019-02-04T06:54:37.626Z,1007.4
2019-02-04T06:55:38.996Z,1007.5
2019-02-04T06:56:40.374Z,1007.5
2019-02-04T06:57:41.755Z,1007.5
2019-02-04T06:58:43.131Z,1007.5
2019-02-04T06:59:44.492Z,1007.6
2019-02-04T07:00:45.906Z,1007.6
2019-02-04T07:01:47.279Z,1007.6
2019-02-04T07:02:48.643Z,1007.6
2019-02-04T07:03:49.973Z,1007.6
2019-02-04T07:04:52.065Z,1007.7
2019-02-04T07:05:53.541Z,1007.7
2019-02-04T07:06:54.902Z,1007.7
2019-02-04T07:07:56.267Z,1007.7
2019-02-04T07:08:57.648Z,1007.6
2019-02-04T07:09:59.028Z,1007.6
2019-02-04T07:11:00.393Z,1007.6
2019-02-04T07:12:01.778Z,1007.6
2019-02-04T07:13:03.100Z,1007.5
2019-02-04T07:14:04.460Z,1007.5
2019-02-04T07:15:05.838Z,1007.5
2019-02-04T07:16:07.219Z,1007.5
2019-02-04T07:17:08.600Z,1007.5
2019-02-04T07:18:09.964Z,1007.4
2019-02-04T07:19:11.339Z,1007.4
2019-02-04T07:20:12.710Z,1007.4
2019-02-04T07:21:14.095Z,1007.4
2019-02-04T07:22:15.425Z,1007.5
2019-02-04T07:23:16.824Z,1007.4
2019-02-04T07:24:18.196Z,1007.4
2019-02-04T07:25:19.580Z,1007.5
2019-02-04T07:26:20.955Z,1007.5
2019-02-04T07:27:22.487Z,1007.5
2019-02-04T07:28:23.682Z,1007.5
2019-02-04T07:29:25.068Z,1007.6
2019-02-04T07:30:26.471Z,1007.6
2019-02-04T07:31:27.831Z,1007.6
2019-02-04T07:32:29.203Z,1007.6
2019-02-04T07:33:30.573Z,1007.6
2019-02-04T07:34:31.942Z,1007.6
2019-02-04T07:35:33.329Z,1007.6
2019-02-04T07:36:34.768Z,1007.6
2019-02-04T07:37:36.970Z,1007.6
2019-02-04T07:38:37.546Z,1007.6
2019-02-04T07:39:38.922Z,1007.6
2019-02-04T07:40:40.263Z,1007.6
2019-02-04T07:41:41.634Z,1007.7
2019-02-04T07:42:43.038Z,1007.7
2019-02-04T07:43:44.406Z,1007.7
2019-02-04T07:44:45.897Z,1007.7
2019-02-04T07:45:47.274Z,1007.7
2019-02-04T07:46:48.710Z,1007.8
2019-02-04T07:47:50.100Z,1007.7
2019-02-04T07:48:51.482Z,1007.7
2019-02-04T07:49:52.900Z,1007.7
2019-02-04T07:50:54.829Z,1007.7
2019-02-04T07:51:56.247Z,1007.7
2019-02-04T07:52:57.601Z,1007.7
2019-02-04T07:53:59.081Z,1007.7
2019-02-04T07:55:00.334Z,1007.7
2019-02-04T07:56:01.694Z,1007.7
2019-02-04T07:57:03.066Z,1007.6
2019-02-04T07:58:04.477Z,1007.7
2019-02-04T07:59:05.845Z,1007.6
2019-02-04T08:00:07.236Z,1007.6
2019-02-04T08:01:08.611Z,1007.6
2019-02-04T08:02:09.990Z,1007.7
2019-02-04T08:03:11.375Z,1007.7
2019-02-04T08:04:12.737Z,1007.7
2019-02-04T08:05:14.142Z,1007.7
2019-02-04T08:06:15.506Z,1007.7
2019-02-04T08:07:16.935Z,1007.8
2019-02-04T08:08:18.260Z,1007.8
2019-02-04T08:09:19.597Z,1007.8
2019-02-04T08:10:21.171Z,1007.7
2019-02-04T08:11:22.531Z,1007.7
2019-02-04T08:12:23.933Z,1007.7
2019-02-04T08:13:25.298Z,1007.7
2019-02-04T08:14:26.692Z,1007.8
2019-02-04T08:15:28.066Z,1007.8
2019-02-04T08:16:29.620Z,1007.9
2019-02-04T08:17:31.010Z,1007.9
2019-02-04T08:18:32.613Z,1007.9
2019-02-04T08:19:33.943Z,1007.9
2019-02-04T08:20:35.347Z,1007.9
2019-02-04T08:21:37.349Z,1007.9
2019-02-04T08:22:38.673Z,1007.8
2019-02-04T08:23:40.064Z,1007.9
2019-02-04T08:24:41.847Z,1007.9
2019-02-04T08:25:43.210Z,1007.9
2019-02-04T08:26:44.591Z,1007.9
2019-02-04T08:27:45.965Z,1008.0
2019-02-04T08:28:47.302Z,1008.0
2019-02-04T08:29:49.249Z,1008.0
2019-02-04T08:30:51.564Z,1008.0
2019-02-04T08:31:53.137Z,1008.0
2019-02-04T08:32:54.817Z,1008.0
2019-02-04T08:33:56.324Z,1007.9
2019-02-04T08:34:57.991Z,1008.0
2019-02-04T08:35:59.561Z,1008.0
2019-02-04T08:37:00.960Z,1008.0
2019-02-04T08:38:02.363Z,1007.9
2019-02-04T08:39:03.736Z,1007.9
2019-02-04T08:40:05.119Z,1007.9
2019-02-04T08:41:06.498Z,1008.0
2019-02-04T08:42:07.875Z,1008.0
2019-02-04T08:43:09.252Z,1008.0
2019-02-04T08:44:10.624Z,1008.0
2019-02-04T08:45:12.023Z,1008.0
2019-02-04T08:46:13.430Z,1008.0
2019-02-04T08:47:22.695Z,1008.0
2019-02-04T08:48:16.160Z,1008.0
2019-02-04T08:49:17.659Z,1008.0
2019-02-04T08:50:19.027Z,1008.0
2019-02-04T08:51:20.401Z,1008.0
2019-02-04T08:52:21.771Z,1008.0
2019-02-04T08:53:23.145Z,1008.0
2019-02-04T08:54:24.518Z,1008.0
2019-02-04T08:55:25.895Z,1008.0
2019-02-04T08:56:27.223Z,1008.0
2019-02-04T08:57:28.605Z,1008.0
2019-02-04T08:58:29.979Z,1008.0
2019-02-04T08:59:31.521Z,1008.0
2019-02-04T09:00:32.799Z,1008.0
2019-02-04T09:01:34.180Z,1008.0
2019-02-04T09:02:35.630Z,1008.0
2019-02-04T09:03:36.979Z,1008.0
2019-02-04T09:04:39.267Z,1008.0
2019-02-04T09:05:40.641Z,1008.0
2019-02-04T09:06:42.039Z,1008.1
2019-02-04T09:07:43.418Z,1008.1
2019-02-04T09:08:44.786Z,1008.1
2019-02-04T09:09:46.159Z,1008.1
2019-02-04T09:10:47.532Z,1008.1
2019-02-04T09:11:48.904Z,1008.1
2019-02-04T09:12:50.300Z,1008.1
2019-02-04T09:13:51.670Z,1008.1
2019-02-04T09:14:53.024Z,1008.1
2019-02-04T09:15:54.397Z,1008.1
2019-02-04T09:16:55.795Z,1008.2
2019-02-04T09:17:57.188Z,1008.1
2019-02-04T09:18:58.564Z,1008.2
2019-02-04T09:20:09.777Z,1008.1
2019-02-04T09:21:01.331Z,1008.1
2019-02-04T09:22:02.695Z,1008.1
2019-02-04T09:23:06.065Z,1008.0
2019-02-04T09:24:05.416Z,1008.1
2019-02-04T09:25:06.810Z,1008.0
2019-02-04T09:26:08.177Z,1008.0
2019-02-04T09:27:09.556Z,1008.0
2019-02-04T09:28:10.943Z,1008.0
2019-02-04T09:29:12.318Z,1008.0
2019-02-04T09:30:13.695Z,1008.0
2019-02-04T09:31:15.070Z,1008.0
2019-02-04T09:32:16.439Z,1007.9
2019-02-04T09:33:17.842Z,1007.9
2019-02-04T09:34:19.191Z,1007.9
2019-02-04T09:35:20.574Z,1007.9
2019-02-04T09:36:21.952Z,1007.9
2019-02-04T09:37:23.458Z,1007.9
2019-02-04T09:38:24.716Z,1007.9
2019-02-04T09:39:26.172Z,1007.9
2019-02-04T09:40:27.737Z,1007.9
2019-02-04T09:41:29.146Z,1007.9
2019-02-04T09:42:30.484Z,1007.9
2019-02-04T09:43:31.858Z,1007.9
2019-02-04T09:44:33.236Z,1007.9
2019-02-04T09:45:34.638Z,1007.9
2019-02-04T09:46:36.159Z,1007.8
2019-02-04T09:47:37.581Z,1007.8
2019-02-04T09:48:38.947Z,1007.8
2019-02-04T09:49:40.321Z,1007.8
2019-02-04T09:50:41.724Z,1007.7
2019-02-04T09:51:43.057Z,1007.8
2019-02-04T09:52:44.441Z,1007.7
2019-02-04T09:53:45.816Z,1007.7
2019-02-04T09:54:47.180Z,1007.7
2019-02-04T09:55:48.572Z,1007.7
2019-02-04T09:56:49.951Z,1007.7
2019-02-04T09:57:51.349Z,1007.7
2019-02-04T09:58:52.713Z,1007.7
2019-02-04T09:59:54.319Z,1007.7
2019-02-04T10:00:55.550Z,1007.7
2019-02-04T10:01:56.920Z,1007.8
2019-02-04T10:02:58.302Z,1007.8
2019-02-04T10:03:59.692Z,1007.7
2019-02-04T10:05:01.070Z,1007.7
2019-02-04T10:06:02.457Z,1007.7
2019-02-04T10:07:03.859Z,1007.7
2019-02-04T10:08:05.229Z,1007.7
2019-02-04T10:09:06.599Z,1007.7
2019-02-04T10:10:07.975Z,1007.7
2019-02-04T10:11:09.330Z,1007.7
2019-02-04T10:12:10.705Z,1007.8
2019-02-04T10:13:12.082Z,1007.7
2019-02-04T10:14:13.476Z,1007.7
2019-02-04T10:15:14.871Z,1007.7
2019-02-04T10:16:16.388Z,1007.7
2019-02-04T10:17:17.649Z,1007.7
2019-02-04T10:18:19.030Z,1007.7
2019-02-04T10:19:20.371Z,1007.6
2019-02-04T10:20:32.986Z,1007.6
2019-02-04T10:21:23.054Z,1007.6
2019-02-04T10:22:24.425Z,1007.6
2019-02-04T10:23:25.797Z,1007.7
2019-02-04T10:24:27.188Z,1007.6
2019-02-04T10:25:28.669Z,1007.7
2019-02-04T10:26:30.085Z,1007.7
2019-02-04T10:27:31.468Z,1007.6
2019-02-04T10:28:32.842Z,1007.7
2019-02-04T10:29:34.264Z,1007.6
2019-02-04T10:30:35.639Z,1007.6
2019-02-04T10:31:37.039Z,1007.7
2019-02-04T10:32:38.464Z,1007.7
2019-02-04T10:33:39.773Z,1007.7
2019-02-04T10:34:41.203Z,1007.7
2019-02-04T10:35:42.721Z,1007.7
2019-02-04T10:36:44.158Z,1007.7
2019-02-04T10:37:45.431Z,1007.8
2019-02-04T10:38:46.820Z,1007.8
2019-02-04T10:39:48.103Z,1007.8
2019-02-04T10:40:49.535Z,1007.8
2019-02-04T10:41:50.911Z,1007.8
2019-02-04T10:42:52.260Z,1007.8
2019-02-04T10:43:53.646Z,1007.8
2019-02-04T10:44:55.000Z,1007.8
2019-02-04T10:45:56.459Z,1007.8
2019-02-04T10:46:57.868Z,1007.8
2019-02-04T10:47:59.206Z,1007.7
2019-02-04T10:49:00.589Z,1007.7
2019-02-04T10:50:01.940Z,1007.7
2019-02-04T10:51:03.292Z,1007.7
2019-02-04T10:52:04.677Z,1007.6
2019-02-04T10:53:06.059Z,1007.5
2019-02-04T10:54:07.456Z,1007.5
2019-02-04T10:55:08.834Z,1007.5
2019-02-04T10:56:10.168Z,1007.5
2019-02-04T10:57:11.573Z,1007.4
2019-02-04T10:58:13.002Z,1007.4
2019-02-04T10:59:14.402Z,1007.4
2019-02-04T11:00:15.810Z,1007.3
2019-02-04T11:01:17.306Z,1007.3
2019-02-04T11:02:18.703Z,1007.3
2019-02-04T11:03:20.265Z,1007.3
2019-02-04T11:04:21.435Z,1007.3
2019-02-04T11:05:22.774Z,1007.3
2019-02-04T11:06:24.155Z,1007.3
2019-02-04T11:07:25.559Z,1007.2
2019-02-04T11:08:26.947Z,1007.2
2019-02-04T11:09:28.294Z,1007.2
2019-02-04T11:10:29.670Z,1007.1
2019-02-04T11:11:31.318Z,1007.1
2019-02-04T11:12:32.673Z,1007.1
2019-02-04T11:13:34.058Z,1007.1
2019-02-04T11:14:35.488Z,1007.1
2019-02-04T11:15:36.835Z,1007.1
2019-02-04T11:16:38.230Z,1007.1
2019-02-04T11:17:39.635Z,1007.1
2019-02-04T11:18:41.003Z,1007.1
2019-02-04T11:19:42.405Z,1007.1
2019-02-04T11:20:43.734Z,1007.1
2019-02-04T11:21:45.234Z,1007.1
2019-02-04T11:22:46.593Z,1007.1
2019-02-04T11:23:47.992Z,1007.1
2019-02-04T11:24:49.372Z,1007.1
2019-02-04T11:25:50.801Z,1007.0
2019-02-04T11:26:52.099Z,1007.0
2019-02-04T11:27:53.472Z,1007.0
2019-02-04T11:28:55.063Z,1006.9
2019-02-04T11:29:56.409Z,1007.0
2019-02-04T11:30:57.831Z,1006.9
2019-02-04T11:31:59.205Z,1006.9
2019-02-04T11:33:00.582Z,1006.9
2019-02-04T11:34:01.948Z,1006.8
2019-02-04T11:35:03.327Z,1006.8
2019-02-04T11:36:04.678Z,1006.8
2019-02-04T11:37:06.265Z,1006.8
2019-02-04T11:38:07.708Z,1006.8
2019-02-04T11:39:09.070Z,1006.8
2019-02-04T11:40:11.070Z,1006.8
2019-02-04T11:41:12.301Z,1006.8
2019-02-04T11:42:13.720Z,1006.8
2019-02-04T11:43:15.108Z,1006.7
2019-02-04T11:44:16.467Z,1006.8
2019-02-04T11:45:17.833Z,1006.7
2019-02-04T11:46:19.186Z,1006.8
2019-02-04T11:47:20.578Z,1006.7
2019-02-04T11:48:21.951Z,1006.7
2019-02-04T11:49:23.289Z,1006.7
2019-02-04T11:50:24.661Z,1006.8
2019-02-04T11:51:26.057Z,1006.8
2019-02-04T11:52:27.470Z,1006.8
2019-02-04T11:53:32.930Z,1006.7
2019-02-04T11:54:30.229Z,1006.7
2019-02-04T11:55:31.630Z,1006.7
2019-02-04T11:56:32.962Z,1006.7
2019-02-04T11:57:34.970Z,1006.7
2019-02-04T11:58:36.346Z,1006.6
2019-02-04T11:59:37.719Z,1006.7
2019-02-04T12:00:39.103Z,1006.6
2019-02-04T12:01:40.479Z,1006.6
2019-02-04T12:02:41.852Z,1006.6
2019-02-04T12:03:43.263Z,1006.6
2019-02-04T12:04:44.636Z,1006.6
2019-02-04T12:05:45.986Z,1006.6
2019-02-04T12:06:47.358Z,1006.6
2019-02-04T12:07:48.737Z,1006.6
2019-02-04T12:08:50.164Z,1006.6
2019-02-04T12:09:51.538Z,1006.5
2019-02-04T12:10:52.932Z,1006.5
2019-02-04T12:11:55.778Z,1006.5
2019-02-04T12:12:55.637Z,1006.4
2019-02-04T12:13:57.025Z,1006.4
2019-02-04T12:14:58.383Z,1006.4
2019-02-04T12:15:59.751Z,1006.4
2019-02-04T12:17:01.140Z,1006.3
2019-02-04T12:18:02.515Z,1006.3
2019-02-04T12:19:03.911Z,1006.2
2019-02-04T12:20:05.262Z,1006.2
2019-02-04T12:21:06.644Z,1006.2
2019-02-04T12:22:08.039Z,1006.2
2019-02-04T12:23:09.424Z,1006.2
2019-02-04T12:24:10.759Z,1006.1
2019-02-04T12:25:12.166Z,1006.2
2019-02-04T12:26:13.537Z,1006.2
2019-02-04T12:27:14.972Z,1006.1
2019-02-04T12:28:16.338Z,1006.1
2019-02-04T12:29:17.736Z,1006.1
2019-02-04T12:30:19.100Z,1006.1
2019-02-04T12:31:20.497Z,1006.1
2019-02-04T12:32:21.881Z,1006.1
2019-02-04T12:33:23.213Z,1006.0
2019-02-04T12:34:24.597Z,1006.0
2019-02-04T12:35:25.987Z,1006.1
2019-02-04T12:36:27.382Z,1006.0
2019-02-04T12:37:28.769Z,1006.0
2019-02-04T12:38:30.139Z,1006.0
2019-02-04T12:39:31.531Z,1006.0
2019-02-04T12:40:33.115Z,1006.1
2019-02-04T12:41:34.464Z,1006.0
2019-02-04T12:42:35.822Z,1006.1
2019-02-04T12:43:37.196Z,1006.0
2019-02-04T12:44:38.600Z,1006.0
2019-02-04T12:45:40.029Z,1006.0